sensor_id;sensor_type;location;lat;lon;timestamp;P1;durP1;ratioP1;P2;durP2;ratioP2
9547;SDS011;4812;51.992;8.648;2023-05-07T00:02:38;16.80;;;13.77;;
9547;SDS011;4812;51.992;8.648;2023-05-07T00:08:38;20.17;;;13.70;;
9547;SDS011;4812;51.992;8.648;2023-05-07T00:11:24;17.40;;;14.52;;
9547;SDS011;4812;51.992;8.648;2023-05-07T00:14:11;19.40;;;14.13;;
9547;SDS011;4812;51.992;8.648;2023-05-07T00:16:58;16.65;;;13.98;;
9547;SDS011;4812;51.992;8.648;2023-05-07T00:19:44;23.42;;;15.30;;
9547;SDS011;4812;51.992;8.648;2023-05-07T00:22:31;16.38;;;13.65;;
9547;SDS011;4812;51.992;8.648;2023-05-07T00:25:25;18.33;;;13.50;;
9547;SDS011;4812;51.992;8.648;2023-05-07T00:28:18;18.98;;;15.10;;
9547;SDS011;4812;51.992;8.648;2023-05-07T00:34:23;19.08;;;14.70;;
9547;SDS011;4812;51.992;8.648;2023-05-07T00:40:33;21.90;;;13.90;;
9547;SDS011;4812;51.992;8.648;2023-05-07T00:43:26;16.65;;;13.13;;
9547;SDS011;4812;51.992;8.648;2023-05-07T00:46:20;18.67;;;14.30;;
9547;SDS011;4812;51.992;8.648;2023-05-07T00:49:13;19.27;;;14.63;;
9547;SDS011;4812;51.992;8.648;2023-05-07T00:52:09;19.27;;;14.30;;
9547;SDS011;4812;51.992;8.648;2023-05-07T00:58:23;19.20;;;14.57;;
9547;SDS011;4812;51.992;8.648;2023-05-07T01:01:15;22.30;;;14.68;;
9547;SDS011;4812;51.992;8.648;2023-05-07T01:04:07;22.67;;;15.50;;
9547;SDS011;4812;51.992;8.648;2023-05-07T01:07:00;19.00;;;14.23;;
9547;SDS011;4812;51.992;8.648;2023-05-07T01:09:56;25.13;;;16.70;;
9547;SDS011;4812;51.992;8.648;2023-05-07T01:12:48;18.13;;;14.40;;
9547;SDS011;4812;51.992;8.648;2023-05-07T01:15:44;25.50;;;15.88;;
9547;SDS011;4812;51.992;8.648;2023-05-07T01:18:36;18.20;;;15.23;;
9547;SDS011;4812;51.992;8.648;2023-05-07T01:21:30;20.65;;;15.93;;
9547;SDS011;4812;51.992;8.648;2023-05-07T01:24:28;20.10;;;14.80;;
9547;SDS011;4812;51.992;8.648;2023-05-07T01:27:22;20.60;;;15.13;;
9547;SDS011;4812;51.992;8.648;2023-05-07T01:30:16;20.05;;;15.45;;
9547;SDS011;4812;51.992;8.648;2023-05-07T01:33:09;20.52;;;14.73;;
9547;SDS011;4812;51.992;8.648;2023-05-07T01:36:04;18.20;;;13.40;;
9547;SDS011;4812;51.992;8.648;2023-05-07T01:38:58;21.92;;;15.57;;
9547;SDS011;4812;51.992;8.648;2023-05-07T01:41:53;19.98;;;14.52;;
9547;SDS011;4812;51.992;8.648;2023-05-07T01:44:47;21.17;;;15.15;;
9547;SDS011;4812;51.992;8.648;2023-05-07T01:47:39;20.00;;;15.13;;
9547;SDS011;4812;51.992;8.648;2023-05-07T01:53:53;21.15;;;15.15;;
9547;SDS011;4812;51.992;8.648;2023-05-07T01:59:55;22.83;;;15.00;;
9547;SDS011;4812;51.992;8.648;2023-05-07T02:05:54;24.67;;;16.20;;
9547;SDS011;4812;51.992;8.648;2023-05-07T02:08:54;23.80;;;16.45;;
9547;SDS011;4812;51.992;8.648;2023-05-07T02:11:47;20.48;;;15.65;;
9547;SDS011;4812;51.992;8.648;2023-05-07T02:18:02;23.77;;;17.50;;
9547;SDS011;4812;51.992;8.648;2023-05-07T02:24:02;21.23;;;16.95;;
9547;SDS011;4812;51.992;8.648;2023-05-07T02:26:56;22.02;;;17.35;;
9547;SDS011;4812;51.992;8.648;2023-05-07T02:29:48;22.60;;;16.42;;
9547;SDS011;4812;51.992;8.648;2023-05-07T02:32:43;20.50;;;16.63;;
9547;SDS011;4812;51.992;8.648;2023-05-07T02:35:36;22.05;;;15.30;;
9547;SDS011;4812;51.992;8.648;2023-05-07T02:38:28;21.73;;;16.48;;
9547;SDS011;4812;51.992;8.648;2023-05-07T02:41:20;18.75;;;15.48;;
9547;SDS011;4812;51.992;8.648;2023-05-07T02:44:13;19.77;;;15.95;;
9547;SDS011;4812;51.992;8.648;2023-05-07T02:47:06;20.83;;;15.93;;
9547;SDS011;4812;51.992;8.648;2023-05-07T02:50:02;21.45;;;16.50;;
9547;SDS011;4812;51.992;8.648;2023-05-07T02:56:15;23.25;;;16.83;;
9547;SDS011;4812;51.992;8.648;2023-05-07T02:59:07;18.42;;;14.93;;
9547;SDS011;4812;51.992;8.648;2023-05-07T03:02:03;19.65;;;16.48;;
9547;SDS011;4812;51.992;8.648;2023-05-07T03:08:10;19.15;;;14.98;;
9547;SDS011;4812;51.992;8.648;2023-05-07T03:14:20;35.42;;;16.85;;
9547;SDS011;4812;51.992;8.648;2023-05-07T03:17:12;22.60;;;15.77;;
9547;SDS011;4812;51.992;8.648;2023-05-07T03:20:06;20.10;;;16.50;;
9547;SDS011;4812;51.992;8.648;2023-05-07T03:23:01;19.83;;;14.98;;
9547;SDS011;4812;51.992;8.648;2023-05-07T03:25:56;19.60;;;15.52;;
9547;SDS011;4812;51.992;8.648;2023-05-07T03:28:48;21.27;;;16.40;;
9547;SDS011;4812;51.992;8.648;2023-05-07T03:31:41;23.38;;;17.05;;
9547;SDS011;4812;51.992;8.648;2023-05-07T03:34:35;22.40;;;16.02;;
9547;SDS011;4812;51.992;8.648;2023-05-07T03:37:28;20.63;;;15.15;;
9547;SDS011;4812;51.992;8.648;2023-05-07T03:40:25;22.85;;;16.67;;
9547;SDS011;4812;51.992;8.648;2023-05-07T03:43:20;22.40;;;16.38;;
9547;SDS011;4812;51.992;8.648;2023-05-07T03:46:21;20.48;;;15.77;;
9547;SDS011;4812;51.992;8.648;2023-05-07T03:49:14;23.70;;;15.93;;
9547;SDS011;4812;51.992;8.648;2023-05-07T03:52:08;23.75;;;16.40;;
9547;SDS011;4812;51.992;8.648;2023-05-07T03:55:02;21.08;;;16.50;;
9547;SDS011;4812;51.992;8.648;2023-05-07T03:57:57;23.70;;;17.95;;
9547;SDS011;4812;51.992;8.648;2023-05-07T04:01:01;20.40;;;16.13;;
9547;SDS011;4812;51.992;8.648;2023-05-07T04:03:55;20.08;;;16.33;;
9547;SDS011;4812;51.992;8.648;2023-05-07T04:06:49;21.65;;;16.45;;
9547;SDS011;4812;51.992;8.648;2023-05-07T04:09:42;22.35;;;16.75;;
9547;SDS011;4812;51.992;8.648;2023-05-07T04:12:34;22.38;;;15.93;;
9547;SDS011;4812;51.992;8.648;2023-05-07T04:15:28;19.30;;;14.95;;
9547;SDS011;4812;51.992;8.648;2023-05-07T04:18:23;22.65;;;17.27;;
9547;SDS011;4812;51.992;8.648;2023-05-07T04:21:15;25.75;;;16.67;;
9547;SDS011;4812;51.992;8.648;2023-05-07T04:27:27;21.35;;;15.43;;
9547;SDS011;4812;51.992;8.648;2023-05-07T04:30:20;23.27;;;16.05;;
9547;SDS011;4812;51.992;8.648;2023-05-07T04:33:14;20.80;;;16.00;;
9547;SDS011;4812;51.992;8.648;2023-05-07T04:36:10;20.52;;;16.15;;
9547;SDS011;4812;51.992;8.648;2023-05-07T04:39:10;23.45;;;16.33;;
9547;SDS011;4812;51.992;8.648;2023-05-07T04:42:05;22.20;;;16.65;;
9547;SDS011;4812;51.992;8.648;2023-05-07T04:48:35;22.35;;;15.85;;
9547;SDS011;4812;51.992;8.648;2023-05-07T04:54:45;23.33;;;17.67;;
9547;SDS011;4812;51.992;8.648;2023-05-07T04:57:38;22.38;;;17.13;;
9547;SDS011;4812;51.992;8.648;2023-05-07T05:03:55;22.38;;;16.13;;
9547;SDS011;4812;51.992;8.648;2023-05-07T05:09:56;26.92;;;15.68;;
9547;SDS011;4812;51.992;8.648;2023-05-07T05:16:06;20.90;;;15.63;;
9547;SDS011;4812;51.992;8.648;2023-05-07T05:18:59;23.45;;;15.93;;
9547;SDS011;4812;51.992;8.648;2023-05-07T05:21:53;22.42;;;15.95;;
9547;SDS011;4812;51.992;8.648;2023-05-07T05:24:46;20.20;;;15.30;;
9547;SDS011;4812;51.992;8.648;2023-05-07T05:27:41;24.63;;;16.23;;
9547;SDS011;4812;51.992;8.648;2023-05-07T05:30:34;22.75;;;16.80;;
9547;SDS011;4812;51.992;8.648;2023-05-07T05:36:44;21.38;;;15.30;;
9547;SDS011;4812;51.992;8.648;2023-05-07T05:42:43;22.70;;;14.82;;
9547;SDS011;4812;51.992;8.648;2023-05-07T05:45:38;20.95;;;14.90;;
9547;SDS011;4812;51.992;8.648;2023-05-07T05:48:50;18.95;;;14.85;;
9547;SDS011;4812;51.992;8.648;2023-05-07T05:51:43;19.20;;;14.18;;
9547;SDS011;4812;51.992;8.648;2023-05-07T05:54:36;20.83;;;15.82;;
9547;SDS011;4812;51.992;8.648;2023-05-07T05:57:30;21.65;;;14.90;;
9547;SDS011;4812;51.992;8.648;2023-05-07T06:00:24;22.10;;;14.80;;
9547;SDS011;4812;51.992;8.648;2023-05-07T06:03:24;20.13;;;16.17;;
9547;SDS011;4812;51.992;8.648;2023-05-07T06:06:17;17.38;;;14.18;;
9547;SDS011;4812;51.992;8.648;2023-05-07T06:09:11;24.30;;;14.68;;
9547;SDS011;4812;51.992;8.648;2023-05-07T06:12:06;19.73;;;14.98;;
9547;SDS011;4812;51.992;8.648;2023-05-07T06:14:59;19.90;;;14.98;;
9547;SDS011;4812;51.992;8.648;2023-05-07T06:17:54;19.70;;;14.27;;
9547;SDS011;4812;51.992;8.648;2023-05-07T06:20:48;20.42;;;14.18;;
9547;SDS011;4812;51.992;8.648;2023-05-07T06:23:48;18.42;;;13.90;;
9547;SDS011;4812;51.992;8.648;2023-05-07T06:26:40;21.27;;;14.32;;
9547;SDS011;4812;51.992;8.648;2023-05-07T06:32:51;19.20;;;14.75;;
9547;SDS011;4812;51.992;8.648;2023-05-07T06:39:20;18.77;;;14.63;;
9547;SDS011;4812;51.992;8.648;2023-05-07T06:45:23;18.83;;;13.98;;
9547;SDS011;4812;51.992;8.648;2023-05-07T06:51:37;22.45;;;14.77;;
9547;SDS011;4812;51.992;8.648;2023-05-07T06:54:32;19.67;;;14.07;;
9547;SDS011;4812;51.992;8.648;2023-05-07T06:57:24;18.08;;;13.40;;
9547;SDS011;4812;51.992;8.648;2023-05-07T07:00:18;17.38;;;12.40;;
9547;SDS011;4812;51.992;8.648;2023-05-07T07:03:17;18.13;;;13.52;;
9547;SDS011;4812;51.992;8.648;2023-05-07T07:06:11;18.42;;;13.82;;
9547;SDS011;4812;51.992;8.648;2023-05-07T07:09:04;16.23;;;13.32;;
9547;SDS011;4812;51.992;8.648;2023-05-07T07:15:06;16.38;;;12.32;;
9547;SDS011;4812;51.992;8.648;2023-05-07T07:17:58;17.70;;;13.13;;
9547;SDS011;4812;51.992;8.648;2023-05-07T07:20:51;17.02;;;12.50;;
9547;SDS011;4812;51.992;8.648;2023-05-07T07:23:45;17.02;;;13.40;;
9547;SDS011;4812;51.992;8.648;2023-05-07T07:30:12;13.02;;;10.73;;
9547;SDS011;4812;51.992;8.648;2023-05-07T07:36:25;18.35;;;11.73;;
9547;SDS011;4812;51.992;8.648;2023-05-07T07:39:37;12.98;;;10.82;;
9547;SDS011;4812;51.992;8.648;2023-05-07T07:42:31;13.60;;;10.73;;
9547;SDS011;4812;51.992;8.648;2023-05-07T07:45:27;13.13;;;10.15;;
9547;SDS011;4812;51.992;8.648;2023-05-07T07:48:20;13.43;;;11.38;;
9547;SDS011;4812;51.992;8.648;2023-05-07T07:51:12;14.52;;;9.88;;
9547;SDS011;4812;51.992;8.648;2023-05-07T07:54:05;13.57;;;9.95;;
9547;SDS011;4812;51.992;8.648;2023-05-07T07:57:00;12.57;;;10.27;;
9547;SDS011;4812;51.992;8.648;2023-05-07T07:59:55;14.25;;;10.57;;
9547;SDS011;4812;51.992;8.648;2023-05-07T08:02:50;13.32;;;9.95;;
9547;SDS011;4812;51.992;8.648;2023-05-07T08:05:48;11.82;;;9.02;;
9547;SDS011;4812;51.992;8.648;2023-05-07T08:08:42;11.40;;;8.82;;
9547;SDS011;4812;51.992;8.648;2023-05-07T08:15:01;13.82;;;8.93;;
9547;SDS011;4812;51.992;8.648;2023-05-07T08:21:03;9.32;;;7.90;;
9547;SDS011;4812;51.992;8.648;2023-05-07T08:27:20;11.25;;;8.68;;
9547;SDS011;4812;51.992;8.648;2023-05-07T08:30:13;13.98;;;8.82;;
9547;SDS011;4812;51.992;8.648;2023-05-07T08:33:08;12.07;;;8.48;;
9547;SDS011;4812;51.992;8.648;2023-05-07T08:36:00;11.75;;;8.68;;
9547;SDS011;4812;51.992;8.648;2023-05-07T08:38:54;11.93;;;9.18;;
9547;SDS011;4812;51.992;8.648;2023-05-07T08:45:09;11.55;;;8.70;;
9547;SDS011;4812;51.992;8.648;2023-05-07T08:48:14;12.50;;;9.20;;
9547;SDS011;4812;51.992;8.648;2023-05-07T08:54:34;11.73;;;8.60;;
9547;SDS011;4812;51.992;8.648;2023-05-07T08:57:31;11.50;;;9.38;;
9547;SDS011;4812;51.992;8.648;2023-05-07T09:00:24;12.85;;;8.27;;
9547;SDS011;4812;51.992;8.648;2023-05-07T09:03:18;9.95;;;8.10;;
9547;SDS011;4812;51.992;8.648;2023-05-07T09:06:14;10.73;;;7.63;;
9547;SDS011;4812;51.992;8.648;2023-05-07T09:09:08;9.77;;;8.27;;
9547;SDS011;4812;51.992;8.648;2023-05-07T09:12:03;11.88;;;8.98;;
9547;SDS011;4812;51.992;8.648;2023-05-07T09:14:58;9.68;;;8.10;;
9547;SDS011;4812;51.992;8.648;2023-05-07T09:17:53;16.63;;;9.30;;
9547;SDS011;4812;51.992;8.648;2023-05-07T09:20:46;9.43;;;7.75;;
9547;SDS011;4812;51.992;8.648;2023-05-07T09:23:41;11.95;;;8.90;;
9547;SDS011;4812;51.992;8.648;2023-05-07T09:26:37;10.73;;;8.90;;
9547;SDS011;4812;51.992;8.648;2023-05-07T09:32:45;12.23;;;8.63;;
9547;SDS011;4812;51.992;8.648;2023-05-07T09:38:59;10.85;;;8.65;;
9547;SDS011;4812;51.992;8.648;2023-05-07T09:41:52;10.98;;;8.23;;
9547;SDS011;4812;51.992;8.648;2023-05-07T09:44:58;13.13;;;8.50;;
9547;SDS011;4812;51.992;8.648;2023-05-07T09:47:57;11.88;;;8.88;;
9547;SDS011;4812;51.992;8.648;2023-05-07T09:50:52;10.80;;;7.90;;
9547;SDS011;4812;51.992;8.648;2023-05-07T09:53:51;13.30;;;8.60;;
9547;SDS011;4812;51.992;8.648;2023-05-07T09:56:46;11.52;;;8.45;;
9547;SDS011;4812;51.992;8.648;2023-05-07T09:59:43;11.85;;;8.90;;
9547;SDS011;4812;51.992;8.648;2023-05-07T10:02:40;10.48;;;7.78;;
9547;SDS011;4812;51.992;8.648;2023-05-07T10:05:39;10.07;;;8.13;;
9547;SDS011;4812;51.992;8.648;2023-05-07T10:08:32;9.93;;;6.90;;
9547;SDS011;4812;51.992;8.648;2023-05-07T10:11:26;9.10;;;7.65;;
9547;SDS011;4812;51.992;8.648;2023-05-07T10:14:20;9.50;;;7.55;;
9547;SDS011;4812;51.992;8.648;2023-05-07T10:17:13;18.15;;;8.65;;
9547;SDS011;4812;51.992;8.648;2023-05-07T10:20:29;10.80;;;7.30;;
9547;SDS011;4812;51.992;8.648;2023-05-07T10:23:23;9.93;;;6.45;;
9547;SDS011;4812;51.992;8.648;2023-05-07T10:26:20;8.73;;;6.55;;
9547;SDS011;4812;51.992;8.648;2023-05-07T10:29:15;7.65;;;5.80;;
9547;SDS011;4812;51.992;8.648;2023-05-07T10:32:33;8.25;;;6.57;;
9547;SDS011;4812;51.992;8.648;2023-05-07T10:35:29;12.85;;;7.15;;
9547;SDS011;4812;51.992;8.648;2023-05-07T10:38:19;9.52;;;7.15;;
9547;SDS011;4812;51.992;8.648;2023-05-07T10:41:06;9.02;;;6.50;;
9547;SDS011;4812;51.992;8.648;2023-05-07T10:44:07;7.50;;;5.70;;
9547;SDS011;4812;51.992;8.648;2023-05-07T10:47:04;8.82;;;6.38;;
9547;SDS011;4812;51.992;8.648;2023-05-07T10:56:26;7.72;;;5.80;;
9547;SDS011;4812;51.992;8.648;2023-05-07T11:06:08;6.45;;;5.72;;
9547;SDS011;4812;51.992;8.648;2023-05-07T11:12:59;7.15;;;5.75;;
9547;SDS011;4812;51.992;8.648;2023-05-07T11:22:51;8.07;;;4.68;;
9547;SDS011;4812;51.992;8.648;2023-05-07T11:26:10;6.55;;;4.78;;
9547;SDS011;4812;51.992;8.648;2023-05-07T11:29:09;5.88;;;4.90;;
9547;SDS011;4812;51.992;8.648;2023-05-07T11:32:04;7.80;;;4.72;;
9547;SDS011;4812;51.992;8.648;2023-05-07T11:35:04;6.30;;;4.65;;
9547;SDS011;4812;51.992;8.648;2023-05-07T11:37:58;5.03;;;4.45;;
9547;SDS011;4812;51.992;8.648;2023-05-07T11:43:55;5.18;;;4.57;;
9547;SDS011;4812;51.992;8.648;2023-05-07T11:46:49;7.38;;;4.22;;
9547;SDS011;4812;51.992;8.648;2023-05-07T11:49:42;5.45;;;4.15;;
9547;SDS011;4812;51.992;8.648;2023-05-07T11:52:35;6.88;;;4.35;;
9547;SDS011;4812;51.992;8.648;2023-05-07T11:55:27;10.60;;;5.05;;
9547;SDS011;4812;51.992;8.648;2023-05-07T12:01:57;6.75;;;4.03;;
9547;SDS011;4812;51.992;8.648;2023-05-07T12:07:57;6.13;;;4.47;;
9547;SDS011;4812;51.992;8.648;2023-05-07T12:10:50;6.80;;;4.50;;
9547;SDS011;4812;51.992;8.648;2023-05-07T12:13:44;4.95;;;4.03;;
9547;SDS011;4812;51.992;8.648;2023-05-07T12:16:37;4.85;;;4.22;;
9547;SDS011;4812;51.992;8.648;2023-05-07T12:23:01;5.38;;;4.35;;
9547;SDS011;4812;51.992;8.648;2023-05-07T12:29:16;6.80;;;4.32;;
9547;SDS011;4812;51.992;8.648;2023-05-07T12:35:40;5.28;;;3.75;;
9547;SDS011;4812;51.992;8.648;2023-05-07T12:41:54;5.57;;;4.28;;
9547;SDS011;4812;51.992;8.648;2023-05-07T12:44:47;4.72;;;4.15;;
9547;SDS011;4812;51.992;8.648;2023-05-07T12:47:43;5.60;;;3.83;;
9547;SDS011;4812;51.992;8.648;2023-05-07T12:50:36;5.43;;;4.22;;
9547;SDS011;4812;51.992;8.648;2023-05-07T12:53:30;5.25;;;4.28;;
9547;SDS011;4812;51.992;8.648;2023-05-07T12:56:23;8.23;;;3.90;;
9547;SDS011;4812;51.992;8.648;2023-05-07T12:59:17;5.97;;;3.58;;
9547;SDS011;4812;51.992;8.648;2023-05-07T13:02:10;4.95;;;3.72;;
9547;SDS011;4812;51.992;8.648;2023-05-07T13:05:05;4.75;;;3.70;;
9547;SDS011;4812;51.992;8.648;2023-05-07T13:07:58;4.65;;;4.05;;
9547;SDS011;4812;51.992;8.648;2023-05-07T13:10:51;5.20;;;3.53;;
9547;SDS011;4812;51.992;8.648;2023-05-07T13:13:44;7.57;;;3.50;;
9547;SDS011;4812;51.992;8.648;2023-05-07T13:16:38;5.15;;;3.78;;
9547;SDS011;4812;51.992;8.648;2023-05-07T13:19:30;4.43;;;3.92;;
9547;SDS011;4812;51.992;8.648;2023-05-07T13:22:23;6.28;;;4.18;;
9547;SDS011;4812;51.992;8.648;2023-05-07T13:28:37;7.28;;;4.28;;
9547;SDS011;4812;51.992;8.648;2023-05-07T13:31:30;7.18;;;4.97;;
9547;SDS011;4812;51.992;8.648;2023-05-07T13:37:37;6.05;;;5.03;;
9547;SDS011;4812;51.992;8.648;2023-05-07T13:40:30;5.72;;;4.63;;
9547;SDS011;4812;51.992;8.648;2023-05-07T13:46:35;6.93;;;5.45;;
9547;SDS011;4812;51.992;8.648;2023-05-07T13:55:42;9.95;;;6.28;;
9547;SDS011;4812;51.992;8.648;2023-05-07T13:58:35;6.03;;;5.10;;
9547;SDS011;4812;51.992;8.648;2023-05-07T14:01:38;7.88;;;5.53;;
9547;SDS011;4812;51.992;8.648;2023-05-07T14:04:32;6.28;;;4.85;;
9547;SDS011;4812;51.992;8.648;2023-05-07T14:07:25;7.88;;;6.20;;
9547;SDS011;4812;51.992;8.648;2023-05-07T14:10:19;6.13;;;5.35;;
9547;SDS011;4812;51.992;8.648;2023-05-07T14:13:12;7.72;;;6.43;;
9547;SDS011;4812;51.992;8.648;2023-05-07T14:16:05;7.47;;;6.40;;
9547;SDS011;4812;51.992;8.648;2023-05-07T14:18:57;7.07;;;6.15;;
9547;SDS011;4812;51.992;8.648;2023-05-07T14:21:50;7.68;;;6.53;;
9547;SDS011;4812;51.992;8.648;2023-05-07T14:24:43;7.72;;;6.30;;
9547;SDS011;4812;51.992;8.648;2023-05-07T14:27:44;7.20;;;5.50;;
9547;SDS011;4812;51.992;8.648;2023-05-07T14:30:36;7.82;;;6.25;;
9547;SDS011;4812;51.992;8.648;2023-05-07T14:33:29;6.88;;;6.18;;
9547;SDS011;4812;51.992;8.648;2023-05-07T14:39:34;8.07;;;6.20;;
9547;SDS011;4812;51.992;8.648;2023-05-07T14:42:26;8.35;;;7.07;;
9547;SDS011;4812;51.992;8.648;2023-05-07T14:45:21;8.15;;;7.10;;
9547;SDS011;4812;51.992;8.648;2023-05-07T14:48:14;7.80;;;6.70;;
9547;SDS011;4812;51.992;8.648;2023-05-07T14:54:28;9.23;;;6.55;;
9547;SDS011;4812;51.992;8.648;2023-05-07T15:00:52;9.20;;;6.18;;
9547;SDS011;4812;51.992;8.648;2023-05-07T15:06:52;8.00;;;7.00;;
9547;SDS011;4812;51.992;8.648;2023-05-07T15:09:46;9.55;;;6.60;;
9547;SDS011;4812;51.992;8.648;2023-05-07T15:12:37;8.10;;;6.80;;
9547;SDS011;4812;51.992;8.648;2023-05-07T15:15:30;7.75;;;6.88;;
9547;SDS011;4812;51.992;8.648;2023-05-07T15:18:24;7.68;;;6.88;;
9547;SDS011;4812;51.992;8.648;2023-05-07T15:21:17;12.90;;;7.28;;
9547;SDS011;4812;51.992;8.648;2023-05-07T15:24:10;12.18;;;7.68;;
9547;SDS011;4812;51.992;8.648;2023-05-07T15:27:03;7.63;;;6.70;;
9547;SDS011;4812;51.992;8.648;2023-05-07T15:29:55;8.75;;;6.68;;
9547;SDS011;4812;51.992;8.648;2023-05-07T15:36:20;8.45;;;6.90;;
9547;SDS011;4812;51.992;8.648;2023-05-07T15:42:25;7.60;;;6.75;;
9547;SDS011;4812;51.992;8.648;2023-05-07T15:45:18;8.30;;;6.93;;
9547;SDS011;4812;51.992;8.648;2023-05-07T15:48:11;8.02;;;7.22;;
9547;SDS011;4812;51.992;8.648;2023-05-07T15:51:03;24.83;;;6.60;;
9547;SDS011;4812;51.992;8.648;2023-05-07T15:57:12;7.93;;;6.93;;
9547;SDS011;4812;51.992;8.648;2023-05-07T16:00:05;7.53;;;6.65;;
9547;SDS011;4812;51.992;8.648;2023-05-07T16:03:03;7.88;;;6.40;;
9547;SDS011;4812;51.992;8.648;2023-05-07T16:05:55;8.38;;;6.60;;
9547;SDS011;4812;51.992;8.648;2023-05-07T16:11:55;7.25;;;6.10;;
9547;SDS011;4812;51.992;8.648;2023-05-07T16:18:06;11.77;;;7.63;;
9547;SDS011;4812;51.992;8.648;2023-05-07T16:21:00;7.68;;;6.15;;
9547;SDS011;4812;51.992;8.648;2023-05-07T16:23:52;6.68;;;5.80;;
9547;SDS011;4812;51.992;8.648;2023-05-07T16:26:46;8.30;;;6.85;;
9547;SDS011;4812;51.992;8.648;2023-05-07T16:29:38;9.38;;;6.72;;
9547;SDS011;4812;51.992;8.648;2023-05-07T16:32:31;8.23;;;6.57;;
9547;SDS011;4812;51.992;8.648;2023-05-07T16:38:51;8.20;;;7.30;;
9547;SDS011;4812;51.992;8.648;2023-05-07T16:41:44;8.07;;;6.47;;
9547;SDS011;4812;51.992;8.648;2023-05-07T16:44:39;8.10;;;6.77;;
9547;SDS011;4812;51.992;8.648;2023-05-07T16:47:31;7.28;;;6.00;;
9547;SDS011;4812;51.992;8.648;2023-05-07T16:50:25;7.82;;;6.30;;
9547;SDS011;4812;51.992;8.648;2023-05-07T16:53:18;6.90;;;6.13;;
9547;SDS011;4812;51.992;8.648;2023-05-07T16:56:12;6.72;;;6.03;;
9547;SDS011;4812;51.992;8.648;2023-05-07T17:02:11;8.45;;;6.05;;
9547;SDS011;4812;51.992;8.648;2023-05-07T17:08:17;7.50;;;6.35;;
9547;SDS011;4812;51.992;8.648;2023-05-07T17:14:27;6.38;;;5.40;;
9547;SDS011;4812;51.992;8.648;2023-05-07T17:17:19;7.78;;;5.95;;
9547;SDS011;4812;51.992;8.648;2023-05-07T17:20:12;7.95;;;5.95;;
9547;SDS011;4812;51.992;8.648;2023-05-07T17:26:15;6.45;;;5.80;;
9547;SDS011;4812;51.992;8.648;2023-05-07T17:32:25;7.65;;;5.75;;
9547;SDS011;4812;51.992;8.648;2023-05-07T17:38:13;7.07;;;6.38;;
9547;SDS011;4812;51.992;8.648;2023-05-07T17:44:25;8.25;;;6.10;;
9547;SDS011;4812;51.992;8.648;2023-05-07T17:47:17;8.35;;;5.97;;
9547;SDS011;4812;51.992;8.648;2023-05-07T17:53:26;9.10;;;6.25;;
9547;SDS011;4812;51.992;8.648;2023-05-07T17:56:19;9.32;;;6.65;;
9547;SDS011;4812;51.992;8.648;2023-05-07T17:59:11;7.25;;;6.53;;
9547;SDS011;4812;51.992;8.648;2023-05-07T18:05:16;8.45;;;7.10;;
9547;SDS011;4812;51.992;8.648;2023-05-07T18:08:08;9.07;;;7.22;;
9547;SDS011;4812;51.992;8.648;2023-05-07T18:14:15;10.00;;;8.77;;
9547;SDS011;4812;51.992;8.648;2023-05-07T18:20:19;11.38;;;10.02;;
9547;SDS011;4812;51.992;8.648;2023-05-07T18:23:12;12.10;;;10.80;;
9547;SDS011;4812;51.992;8.648;2023-05-07T18:26:05;12.65;;;10.93;;
9547;SDS011;4812;51.992;8.648;2023-05-07T18:28:58;12.55;;;11.02;;
9547;SDS011;4812;51.992;8.648;2023-05-07T18:31:52;14.02;;;11.55;;
9547;SDS011;4812;51.992;8.648;2023-05-07T18:34:45;14.07;;;12.02;;
9547;SDS011;4812;51.992;8.648;2023-05-07T18:37:38;13.38;;;11.02;;
9547;SDS011;4812;51.992;8.648;2023-05-07T18:40:31;13.57;;;12.15;;
9547;SDS011;4812;51.992;8.648;2023-05-07T18:46:45;12.85;;;11.52;;
9547;SDS011;4812;51.992;8.648;2023-05-07T18:52:50;13.75;;;12.07;;
9547;SDS011;4812;51.992;8.648;2023-05-07T18:58:55;15.02;;;12.25;;
9547;SDS011;4812;51.992;8.648;2023-05-07T19:01:48;15.25;;;12.98;;
9547;SDS011;4812;51.992;8.648;2023-05-07T19:07:54;15.63;;;13.00;;
9547;SDS011;4812;51.992;8.648;2023-05-07T19:10:47;16.92;;;12.98;;
9547;SDS011;4812;51.992;8.648;2023-05-07T19:13:44;13.30;;;11.63;;
9547;SDS011;4812;51.992;8.648;2023-05-07T19:16:37;16.63;;;13.00;;
9547;SDS011;4812;51.992;8.648;2023-05-07T19:19:30;15.80;;;14.05;;
9547;SDS011;4812;51.992;8.648;2023-05-07T19:22:22;16.00;;;13.80;;
9547;SDS011;4812;51.992;8.648;2023-05-07T19:25:17;15.35;;;13.20;;
9547;SDS011;4812;51.992;8.648;2023-05-07T19:31:22;17.90;;;13.75;;
9547;SDS011;4812;51.992;8.648;2023-05-07T19:34:17;18.00;;;13.65;;
9547;SDS011;4812;51.992;8.648;2023-05-07T19:37:10;15.73;;;14.07;;
9547;SDS011;4812;51.992;8.648;2023-05-07T19:40:03;16.92;;;14.27;;
9547;SDS011;4812;51.992;8.648;2023-05-07T19:46:07;15.63;;;13.80;;
9547;SDS011;4812;51.992;8.648;2023-05-07T19:48:59;18.20;;;15.20;;
9547;SDS011;4812;51.992;8.648;2023-05-07T19:54:57;14.88;;;13.27;;
9547;SDS011;4812;51.992;8.648;2023-05-07T20:01:37;16.55;;;14.18;;
9547;SDS011;4812;51.992;8.648;2023-05-07T20:04:30;17.15;;;14.10;;
9547;SDS011;4812;51.992;8.648;2023-05-07T20:10:57;16.33;;;14.57;;
9547;SDS011;4812;51.992;8.648;2023-05-07T20:16:58;17.58;;;14.43;;
9547;SDS011;4812;51.992;8.648;2023-05-07T20:23:12;14.93;;;13.32;;
9547;SDS011;4812;51.992;8.648;2023-05-07T20:29:13;16.90;;;12.65;;
9547;SDS011;4812;51.992;8.648;2023-05-07T20:32:07;13.00;;;11.60;;
9547;SDS011;4812;51.992;8.648;2023-05-07T20:35:00;15.02;;;11.35;;
9547;SDS011;4812;51.992;8.648;2023-05-07T20:37:54;12.27;;;10.95;;
9547;SDS011;4812;51.992;8.648;2023-05-07T20:40:47;14.98;;;11.32;;
9547;SDS011;4812;51.992;8.648;2023-05-07T20:43:40;13.32;;;11.10;;
9547;SDS011;4812;51.992;8.648;2023-05-07T20:46:33;12.70;;;10.38;;
9547;SDS011;4812;51.992;8.648;2023-05-07T20:49:28;13.70;;;10.40;;
9547;SDS011;4812;51.992;8.648;2023-05-07T20:52:20;10.63;;;9.10;;
9547;SDS011;4812;51.992;8.648;2023-05-07T20:55:12;8.38;;;7.47;;
9547;SDS011;4812;51.992;8.648;2023-05-07T20:58:06;8.80;;;7.13;;
9547;SDS011;4812;51.992;8.648;2023-05-07T21:00:59;7.65;;;6.50;;
9547;SDS011;4812;51.992;8.648;2023-05-07T21:03:52;7.20;;;6.40;;
9547;SDS011;4812;51.992;8.648;2023-05-07T21:10:23;7.97;;;5.82;;
9547;SDS011;4812;51.992;8.648;2023-05-07T21:16:23;8.15;;;6.55;;
9547;SDS011;4812;51.992;8.648;2023-05-07T21:19:16;8.88;;;6.68;;
9547;SDS011;4812;51.992;8.648;2023-05-07T21:22:09;7.78;;;6.07;;
9547;SDS011;4812;51.992;8.648;2023-05-07T21:25:02;8.77;;;5.68;;
9547;SDS011;4812;51.992;8.648;2023-05-07T21:27:56;7.63;;;5.88;;
9547;SDS011;4812;51.992;8.648;2023-05-07T21:30:50;7.25;;;6.15;;
9547;SDS011;4812;51.992;8.648;2023-05-07T21:33:43;8.98;;;6.18;;
9547;SDS011;4812;51.992;8.648;2023-05-07T21:36:36;7.47;;;6.25;;
9547;SDS011;4812;51.992;8.648;2023-05-07T21:39:28;8.07;;;6.20;;
9547;SDS011;4812;51.992;8.648;2023-05-07T21:42:21;10.23;;;6.20;;
9547;SDS011;4812;51.992;8.648;2023-05-07T21:45:15;8.23;;;7.05;;
9547;SDS011;4812;51.992;8.648;2023-05-07T21:48:08;7.60;;;6.57;;
9547;SDS011;4812;51.992;8.648;2023-05-07T21:51:01;7.25;;;5.55;;
9547;SDS011;4812;51.992;8.648;2023-05-07T21:53:53;10.00;;;6.35;;
9547;SDS011;4812;51.992;8.648;2023-05-07T21:56:47;7.75;;;6.40;;
9547;SDS011;4812;51.992;8.648;2023-05-07T21:59:41;8.90;;;6.50;;
9547;SDS011;4812;51.992;8.648;2023-05-07T22:02:35;7.22;;;6.40;;
9547;SDS011;4812;51.992;8.648;2023-05-07T22:05:28;8.45;;;6.35;;
9547;SDS011;4812;51.992;8.648;2023-05-07T22:08:21;6.88;;;6.10;;
9547;SDS011;4812;51.992;8.648;2023-05-07T22:11:14;7.85;;;6.28;;
9547;SDS011;4812;51.992;8.648;2023-05-07T22:14:06;7.03;;;5.72;;
9547;SDS011;4812;51.992;8.648;2023-05-07T22:16:59;7.28;;;5.85;;
9547;SDS011;4812;51.992;8.648;2023-05-07T22:23:09;7.65;;;6.03;;
9547;SDS011;4812;51.992;8.648;2023-05-07T22:26:08;7.07;;;6.20;;
9547;SDS011;4812;51.992;8.648;2023-05-07T22:29:01;7.55;;;6.55;;
9547;SDS011;4812;51.992;8.648;2023-05-07T22:31:54;6.20;;;5.53;;
9547;SDS011;4812;51.992;8.648;2023-05-07T22:34:47;6.85;;;6.03;;
9547;SDS011;4812;51.992;8.648;2023-05-07T22:37:40;7.63;;;6.07;;